createdAt,value
2017-08-15T00:00:51.689Z,81.74
2017-08-15T00:03:19.502Z,82.18
2017-08-15T00:05:47.260Z,82.18
2017-08-15T00:08:15.148Z,82.44
2017-08-15T00:10:42.842Z,83.49
2017-08-15T00:13:10.618Z,81.88
2017-08-15T00:15:38.446Z,82.47
2017-08-15T00:18:06.260Z,82.11
2017-08-15T00:20:34.052Z,82.37
2017-08-15T00:23:01.761Z,82.55
2017-08-15T00:25:29.599Z,81.75
2017-08-15T00:27:58.330Z,81.86
2017-08-15T00:30:26.067Z,82.05
2017-08-15T00:32:53.840Z,82.00
2017-08-15T00:35:21.682Z,81.92
2017-08-15T00:37:49.480Z,82.74
2017-08-15T00:40:17.248Z,82.96
2017-08-15T00:42:45.003Z,83.15
2017-08-15T00:45:12.816Z,83.93
2017-08-15T00:47:40.546Z,83.16
2017-08-15T00:50:08.365Z,82.78
2017-08-15T00:52:36.189Z,82.51
2017-08-15T00:55:03.908Z,82.75
2017-08-15T00:57:31.772Z,82.70
2017-08-15T00:59:59.621Z,83.08
2017-08-15T01:02:27.513Z,83.30
2017-08-15T01:04:55.260Z,83.39
2017-08-15T01:07:23.001Z,82.74
2017-08-15T01:09:50.732Z,82.63
2017-08-15T01:12:18.603Z,82.63
2017-08-15T01:14:46.438Z,82.73
2017-08-15T01:17:14.276Z,82.81
2017-08-15T01:19:42.093Z,82.82
2017-08-15T01:22:09.923Z,82.41
2017-08-15T01:24:37.802Z,83.67
2017-08-15T01:27:06.191Z,83.36
2017-08-15T01:29:33.903Z,83.90
2017-08-15T01:32:01.793Z,84.09
2017-08-15T01:34:29.541Z,83.65
2017-08-15T01:36:57.347Z,83.44
2017-08-15T01:39:25.056Z,83.20
2017-08-15T01:41:52.857Z,83.52
2017-08-15T01:44:20.615Z,84.27
2017-08-15T01:46:48.304Z,84.19
2017-08-15T01:49:16.085Z,84.09
2017-08-15T01:51:43.821Z,83.53
2017-08-15T01:54:11.531Z,83.48
2017-08-15T01:56:39.380Z,83.14
2017-08-15T01:59:07.086Z,83.12
2017-08-15T02:01:34.886Z,83.50
2017-08-15T02:04:02.650Z,83.54
2017-08-15T02:06:30.355Z,82.94
2017-08-15T02:08:58.160Z,84.40
2017-08-15T02:11:25.983Z,84.08
2017-08-15T02:13:53.742Z,84.21
2017-08-15T02:16:21.541Z,83.53
2017-08-15T02:18:49.245Z,83.38
2017-08-15T02:21:16.988Z,83.61
2017-08-15T02:23:44.700Z,83.48
2017-08-15T02:26:12.509Z,84.05
2017-08-15T02:28:40.356Z,83.94
2017-08-15T02:31:08.155Z,83.93
2017-08-15T02:33:35.857Z,83.53
2017-08-15T02:36:03.701Z,83.39
2017-08-15T02:38:31.532Z,83.88
2017-08-15T02:40:59.277Z,84.21
2017-08-15T02:43:27.129Z,83.96
2017-08-15T02:45:54.854Z,84.25
2017-08-15T02:48:22.699Z,84.71
2017-08-15T02:50:50.490Z,84.23
2017-08-15T02:53:18.198Z,83.61
2017-08-15T02:55:46.005Z,84.19
2017-08-15T02:58:13.764Z,84.31
2017-08-15T03:00:41.500Z,84.53
2017-08-15T03:03:09.315Z,84.69
2017-08-15T03:05:37.282Z,84.24
2017-08-15T03:08:05.076Z,84.66
2017-08-15T03:10:32.788Z,84.36
2017-08-15T03:13:01.800Z,83.39
2017-08-15T03:15:29.544Z,83.87
2017-08-15T03:17:57.325Z,83.83
2017-08-15T03:20:25.068Z,83.69
2017-08-15T03:22:52.801Z,83.98
2017-08-15T03:25:20.523Z,84.31
2017-08-15T03:27:48.274Z,83.76
2017-08-15T03:30:16.251Z,83.75
2017-08-15T03:32:44.005Z,84.00
2017-08-15T03:35:12.030Z,83.84
2017-08-15T03:37:39.910Z,84.08
2017-08-15T03:40:07.635Z,84.42
2017-08-15T03:42:35.411Z,84.63
2017-08-15T03:45:03.171Z,84.89
2017-08-15T03:47:30.961Z,84.69
2017-08-15T03:49:58.821Z,84.41
2017-08-15T03:52:26.584Z,84.52
2017-08-15T03:54:54.485Z,85.10
2017-08-15T03:57:22.298Z,84.74
2017-08-15T03:59:50.053Z,84.44
2017-08-15T04:02:17.813Z,84.76
2017-08-15T04:04:45.568Z,84.75
2017-08-15T04:07:13.688Z,85.37
2017-08-15T04:09:41.417Z,84.72
2017-08-15T04:12:09.291Z,84.60
2017-08-15T04:14:37.134Z,84.77
2017-08-15T04:17:04.971Z,84.94
2017-08-15T04:19:32.707Z,84.77
2017-08-15T04:22:00.545Z,84.43
2017-08-15T04:24:28.258Z,84.22
2017-08-15T04:26:55.955Z,85.10
2017-08-15T04:29:23.687Z,84.37
2017-08-15T04:31:51.386Z,84.61
2017-08-15T04:34:19.106Z,85.35
2017-08-15T04:36:46.806Z,84.80
2017-08-15T04:39:14.538Z,85.17
2017-08-15T04:41:42.293Z,85.89
2017-08-15T04:44:11.097Z,85.52
2017-08-15T04:46:39.034Z,85.16
2017-08-15T04:49:07.539Z,84.96
2017-08-15T04:51:35.256Z,85.28
2017-08-15T04:54:03.813Z,85.23
2017-08-15T04:56:32.487Z,84.51
2017-08-15T04:59:00.222Z,84.88
2017-08-15T05:01:27.929Z,85.22
2017-08-15T05:03:55.635Z,85.36
2017-08-15T05:06:23.388Z,85.15
2017-08-15T05:08:51.100Z,84.96
2017-08-15T05:11:18.791Z,84.08
2017-08-15T05:13:46.514Z,82.49
2017-08-15T05:16:14.229Z,81.75
2017-08-15T05:18:42.027Z,82.59
2017-08-15T05:21:09.735Z,82.27
2017-08-15T05:23:37.509Z,80.77
2017-08-15T05:26:05.241Z,81.15
2017-08-15T05:28:32.974Z,81.27
2017-08-15T05:31:00.750Z,81.17
2017-08-15T05:33:28.486Z,80.64
2017-08-15T05:35:56.313Z,79.41
2017-08-15T05:38:24.048Z,78.69
2017-08-15T05:40:51.773Z,79.06
2017-08-15T05:43:19.596Z,78.81
2017-08-15T05:45:47.291Z,77.84
2017-08-15T05:48:15.073Z,77.51
2017-08-15T05:50:42.828Z,76.83
2017-08-15T05:53:10.627Z,76.35
2017-08-15T05:55:38.490Z,76.96
2017-08-15T05:58:06.291Z,76.23
2017-08-15T06:00:34.135Z,75.69
2017-08-15T06:03:01.818Z,75.66
2017-08-15T06:05:29.495Z,74.24
2017-08-15T06:07:57.232Z,72.95
2017-08-15T06:10:24.981Z,73.55
2017-08-15T06:12:52.739Z,72.36
2017-08-15T06:15:20.475Z,72.30
2017-08-15T06:17:48.171Z,73.46
2017-08-15T06:20:16.313Z,72.93
2017-08-15T06:22:44.003Z,70.29
2017-08-15T06:25:11.773Z,72.11
2017-08-15T06:27:39.551Z,71.75
2017-08-15T06:30:07.268Z,72.22
2017-08-15T06:32:35.001Z,74.27
2017-08-15T06:35:02.769Z,74.07
2017-08-15T06:37:30.536Z,71.75
2017-08-15T06:39:58.301Z,71.77
2017-08-15T06:42:26.074Z,70.99
2017-08-15T06:44:53.801Z,70.48
2017-08-15T06:47:21.485Z,69.50
2017-08-15T06:49:49.921Z,69.03
2017-08-15T06:52:17.606Z,69.23
2017-08-15T06:54:45.333Z,69.39
2017-08-15T06:57:13.110Z,69.25
2017-08-15T06:59:40.889Z,69.11
2017-08-15T07:02:08.635Z,67.07
2017-08-15T07:04:36.342Z,68.50
2017-08-15T07:07:04.094Z,68.57
2017-08-15T07:09:31.825Z,67.19
2017-08-15T07:12:03.112Z,67.26
2017-08-15T07:14:30.953Z,64.68
2017-08-15T07:16:58.690Z,63.86
2017-08-15T07:19:26.523Z,61.98
2017-08-15T07:21:54.281Z,62.38
2017-08-15T07:24:21.987Z,62.12
2017-08-15T07:26:49.734Z,63.21
2017-08-15T07:29:17.503Z,62.71
2017-08-15T07:31:45.278Z,60.43
2017-08-15T07:34:13.015Z,59.94
2017-08-15T07:36:40.736Z,58.22
2017-08-15T07:39:08.516Z,58.47
2017-08-15T07:41:36.208Z,57.26
2017-08-15T07:44:04.033Z,57.73
2017-08-15T07:46:31.822Z,60.04
2017-08-15T07:48:59.596Z,60.52
2017-08-15T07:51:27.447Z,59.83
2017-08-15T07:53:55.241Z,61.42
2017-08-15T07:56:22.973Z,59.47
2017-08-15T07:58:50.778Z,59.61
2017-08-15T08:01:18.555Z,58.87
2017-08-15T08:03:46.337Z,56.48
2017-08-15T08:06:15.177Z,55.09
2017-08-15T08:08:42.940Z,57.30
2017-08-15T08:11:11.787Z,57.25
2017-08-15T08:13:39.562Z,57.83
2017-08-15T08:16:07.290Z,58.05
2017-08-15T08:18:35.063Z,57.54
2017-08-15T08:21:02.775Z,59.17
2017-08-15T08:23:31.644Z,57.46
2017-08-15T08:25:59.416Z,54.89
2017-08-15T08:28:27.223Z,57.05
2017-08-15T08:30:54.926Z,55.74
2017-08-15T08:33:22.676Z,54.29
2017-08-15T08:35:50.408Z,54.89
2017-08-15T08:38:18.194Z,53.11
2017-08-15T08:40:45.974Z,51.70
2017-08-15T08:43:14.552Z,50.33
2017-08-15T08:45:42.287Z,51.61
2017-08-15T08:48:10.074Z,51.52
2017-08-15T08:50:37.839Z,52.80
2017-08-15T08:53:05.691Z,50.51
2017-08-15T08:55:33.403Z,50.74
2017-08-15T08:58:01.168Z,48.79
2017-08-15T09:00:28.868Z,47.65
2017-08-15T09:02:56.611Z,49.86
2017-08-15T09:05:24.371Z,49.64
2017-08-15T09:07:52.101Z,48.10
2017-08-15T09:10:19.874Z,51.45
2017-08-15T09:12:47.634Z,48.91
2017-08-15T09:15:15.429Z,47.92
2017-08-15T09:17:43.183Z,49.79
2017-08-15T09:20:10.947Z,49.39
2017-08-15T09:22:38.736Z,49.05
2017-08-15T09:25:06.653Z,49.39
2017-08-15T09:27:34.454Z,48.97
2017-08-15T09:30:02.244Z,48.93
2017-08-15T09:32:30.118Z,48.88
2017-08-15T09:34:57.888Z,50.35
2017-08-15T09:37:25.624Z,51.39
2017-08-15T09:39:53.473Z,50.11
2017-08-15T09:42:21.235Z,48.66
2017-08-15T09:44:49.011Z,48.28
2017-08-15T09:47:16.813Z,48.04
2017-08-15T09:49:44.585Z,47.36
2017-08-15T09:52:12.301Z,47.41
2017-08-15T09:54:40.225Z,47.56
2017-08-15T09:57:08.556Z,46.29
2017-08-15T09:59:36.313Z,46.33
2017-08-15T10:02:04.068Z,47.32
2017-08-15T10:04:31.826Z,44.97
2017-08-15T10:06:59.634Z,46.32
2017-08-15T10:09:27.552Z,46.33
2017-08-15T10:11:55.391Z,45.69
2017-08-15T10:14:23.265Z,45.97
2017-08-15T10:16:51.098Z,46.59
2017-08-15T10:19:18.875Z,45.86
2017-08-15T10:21:46.697Z,46.34
2017-08-15T10:24:14.418Z,46.17
2017-08-15T10:26:42.108Z,44.45
2017-08-15T10:29:09.855Z,45.23
2017-08-15T10:31:37.544Z,43.20
2017-08-15T10:34:05.341Z,43.80
2017-08-15T10:36:33.121Z,43.64
2017-08-15T10:39:00.837Z,42.77
2017-08-15T10:41:28.674Z,43.78
2017-08-15T10:43:56.396Z,42.91
2017-08-15T10:46:24.587Z,42.64
2017-08-15T10:48:52.308Z,45.90
2017-08-15T10:51:20.066Z,41.39
2017-08-15T10:53:47.857Z,42.21
2017-08-15T10:56:15.580Z,40.72
2017-08-15T10:58:43.389Z,40.61
2017-08-15T11:01:11.171Z,41.92
2017-08-15T11:03:38.886Z,41.68
2017-08-15T11:06:06.678Z,41.68
2017-08-15T11:08:34.466Z,41.88
2017-08-15T11:11:02.159Z,41.69
2017-08-15T11:13:29.911Z,39.60
2017-08-15T11:15:57.678Z,40.74
2017-08-15T11:18:25.490Z,40.92
2017-08-15T11:20:53.266Z,42.44
2017-08-15T11:23:21.042Z,41.90
2017-08-15T11:25:48.700Z,43.66
2017-08-15T11:28:16.506Z,42.54
2017-08-15T11:30:44.204Z,40.35
2017-08-15T11:33:11.968Z,41.67
2017-08-15T11:35:39.763Z,38.94
2017-08-15T11:38:07.530Z,41.08
2017-08-15T11:40:35.338Z,39.83
2017-08-15T11:43:03.118Z,39.39
2017-08-15T11:45:30.973Z,37.29
2017-08-15T11:47:58.660Z,37.81
2017-08-15T11:50:26.446Z,37.66
2017-08-15T11:52:54.169Z,36.29
2017-08-15T11:55:21.859Z,35.92
2017-08-15T11:57:49.622Z,36.95
2017-08-15T12:00:17.351Z,37.59
2017-08-15T12:02:45.078Z,35.78
2017-08-15T12:05:12.855Z,36.42
2017-08-15T12:07:40.638Z,34.61
2017-08-15T12:10:08.337Z,33.13
2017-08-15T12:12:36.156Z,34.29
2017-08-15T12:15:03.946Z,34.22
2017-08-15T12:17:31.691Z,34.59
2017-08-15T12:19:59.484Z,31.89
2017-08-15T12:22:27.216Z,31.25
2017-08-15T12:24:54.988Z,31.66
2017-08-15T12:27:22.760Z,33.72
2017-08-15T12:29:50.467Z,34.85
2017-08-15T12:32:18.155Z,32.15
2017-08-15T12:34:45.895Z,33.73
2017-08-15T12:37:13.584Z,33.97
2017-08-15T12:39:41.310Z,31.67
2017-08-15T12:42:09.011Z,31.94
2017-08-15T12:44:36.818Z,29.54
2017-08-15T12:47:04.508Z,31.99
2017-08-15T12:49:32.242Z,33.51
2017-08-15T12:51:59.934Z,36.27
2017-08-15T12:54:27.622Z,36.88
2017-08-15T12:56:55.359Z,37.99
2017-08-15T12:59:23.044Z,37.66
2017-08-15T13:01:50.777Z,41.19
2017-08-15T13:04:18.560Z,44.19
2017-08-15T13:06:46.370Z,44.87
2017-08-15T13:09:14.130Z,45.64
2017-08-15T13:11:41.840Z,43.02
2017-08-15T13:14:09.574Z,39.56
2017-08-15T13:16:37.378Z,38.19
2017-08-15T13:19:05.186Z,39.60
2017-08-15T13:21:32.960Z,40.00
2017-08-15T13:24:00.661Z,43.33
2017-08-15T13:26:28.443Z,46.33
2017-08-15T13:28:56.224Z,47.04
2017-08-15T13:31:24.019Z,48.88
2017-08-15T13:33:51.823Z,49.41
2017-08-15T13:36:19.608Z,49.96
2017-08-15T13:38:47.475Z,49.71
2017-08-15T13:41:15.217Z,48.93
2017-08-15T13:43:43.037Z,48.10
2017-08-15T13:46:10.805Z,47.84
2017-08-15T13:48:38.604Z,45.05
2017-08-15T13:51:06.377Z,42.82
2017-08-15T13:53:34.141Z,43.87
2017-08-15T13:56:01.889Z,43.81
2017-08-15T13:58:29.693Z,44.36
2017-08-15T14:00:57.518Z,43.76
2017-08-15T14:03:25.328Z,45.59
2017-08-15T14:05:55.893Z,44.36
2017-08-15T14:08:23.758Z,44.91
2017-08-15T14:10:52.137Z,44.32
2017-08-15T14:13:19.950Z,44.05
2017-08-15T14:15:47.870Z,44.72
2017-08-15T14:18:15.801Z,44.49
2017-08-15T14:20:43.539Z,45.78
2017-08-15T14:23:11.297Z,43.31
2017-08-15T14:25:39.113Z,43.39
2017-08-15T14:28:06.867Z,45.50
2017-08-15T14:30:34.589Z,46.50
2017-08-15T14:33:02.349Z,45.17
2017-08-15T14:35:30.115Z,44.02
2017-08-15T14:37:57.900Z,42.72
2017-08-15T14:40:25.729Z,45.72
2017-08-15T14:42:53.488Z,44.48
2017-08-15T14:45:21.359Z,43.50
2017-08-15T14:47:49.104Z,43.56
2017-08-15T14:50:16.881Z,44.91
2017-08-15T14:52:44.708Z,45.60
2017-08-15T14:55:12.440Z,45.02
2017-08-15T14:57:40.317Z,45.29
2017-08-15T15:00:08.047Z,45.60
2017-08-15T15:02:35.822Z,45.39
2017-08-15T15:05:03.668Z,44.27
2017-08-15T15:07:31.516Z,44.61
2017-08-15T15:09:59.364Z,46.40
2017-08-15T15:12:27.095Z,44.19
2017-08-15T15:14:54.917Z,46.14
2017-08-15T15:17:22.728Z,46.73
2017-08-15T15:19:50.517Z,47.51
2017-08-15T15:22:18.384Z,48.79
2017-08-15T15:24:46.121Z,49.81
2017-08-15T15:27:13.954Z,50.16
2017-08-15T15:29:41.743Z,49.76
2017-08-15T15:32:09.565Z,48.19
2017-08-15T15:34:37.613Z,48.30
2017-08-15T15:37:05.318Z,48.75
2017-08-15T15:39:33.029Z,49.11
2017-08-15T15:42:00.835Z,50.31
2017-08-15T15:44:28.658Z,52.04
2017-08-15T15:46:56.512Z,52.47
2017-08-15T15:49:24.265Z,49.67
2017-08-15T15:51:52.093Z,51.73
2017-08-15T15:54:19.894Z,52.49
2017-08-15T15:56:47.620Z,54.22
2017-08-15T15:59:15.388Z,54.00
2017-08-15T16:01:43.185Z,53.55
2017-08-15T16:04:10.955Z,54.40
2017-08-15T16:06:38.723Z,54.94
2017-08-15T16:09:06.488Z,56.54
2017-08-15T16:11:34.205Z,56.96
2017-08-15T16:14:01.992Z,55.95
2017-08-15T16:16:29.704Z,55.65
2017-08-15T16:18:58.392Z,56.94
2017-08-15T16:21:26.142Z,55.67
2017-08-15T16:23:53.853Z,54.87
2017-08-15T16:26:21.642Z,55.12
2017-08-15T16:28:49.427Z,54.84
2017-08-15T16:31:17.303Z,55.78
2017-08-15T16:33:45.050Z,56.13
2017-08-15T16:36:12.749Z,55.86
2017-08-15T16:38:40.497Z,55.27
2017-08-15T16:41:08.272Z,55.88
2017-08-15T16:43:36.130Z,56.12
2017-08-15T16:46:03.936Z,56.00
2017-08-15T16:48:31.747Z,56.55
2017-08-15T16:50:59.577Z,57.50
2017-08-15T16:53:27.537Z,57.30
2017-08-15T16:55:55.362Z,57.62
2017-08-15T16:58:23.185Z,56.25
2017-08-15T17:00:51.025Z,58.16
2017-08-15T17:03:18.818Z,60.31
2017-08-15T17:05:46.630Z,60.30
2017-08-15T17:08:14.427Z,61.30
2017-08-15T17:10:42.461Z,60.44
2017-08-15T17:13:10.343Z,58.40
2017-08-15T17:15:38.189Z,58.45
2017-08-15T17:18:05.925Z,58.68
2017-08-15T17:20:33.811Z,58.97
2017-08-15T17:23:01.572Z,58.89
2017-08-15T17:25:29.543Z,59.80
2017-08-15T17:27:57.377Z,59.69
2017-08-15T17:30:25.289Z,59.96
2017-08-15T17:32:53.105Z,60.47
2017-08-15T17:35:20.964Z,60.93
2017-08-15T17:37:49.688Z,60.79
2017-08-15T17:40:20.223Z,61.09
2017-08-15T17:42:48.038Z,60.68
2017-08-15T17:45:17.133Z,60.51
2017-08-15T17:47:45.008Z,60.26
2017-08-15T17:50:12.728Z,60.63
2017-08-15T17:52:40.490Z,60.93
2017-08-15T17:55:08.358Z,60.68
2017-08-15T17:57:36.182Z,60.72
2017-08-15T18:00:04.054Z,61.02
2017-08-15T18:02:32.003Z,61.94
2017-08-15T18:04:59.823Z,62.44
2017-08-15T18:07:27.602Z,62.46
2017-08-15T18:09:55.516Z,62.38
2017-08-15T18:12:23.428Z,62.32
2017-08-15T18:14:51.189Z,62.94
2017-08-15T18:17:19.074Z,63.33
2017-08-15T18:19:46.839Z,64.59
2017-08-15T18:22:14.661Z,65.73
2017-08-15T18:24:43.358Z,64.14
2017-08-15T18:27:11.137Z,63.68
2017-08-15T18:29:38.929Z,63.34
2017-08-15T18:32:06.759Z,63.46
2017-08-15T18:34:34.601Z,63.58
2017-08-15T18:37:02.372Z,63.13
2017-08-15T18:39:30.209Z,64.76
2017-08-15T18:41:58.015Z,64.99
2017-08-15T18:44:25.886Z,65.90
2017-08-15T18:46:53.713Z,65.04
2017-08-15T18:49:21.609Z,65.84
2017-08-15T18:51:49.484Z,66.73
2017-08-15T18:54:17.421Z,66.83
2017-08-15T18:56:45.278Z,68.17
2017-08-15T18:59:13.185Z,67.01
2017-08-15T19:01:42.545Z,67.09
2017-08-15T19:04:14.519Z,67.75
2017-08-15T19:06:43.450Z,65.98
2017-08-15T19:09:12.608Z,65.93
2017-08-15T19:11:40.544Z,66.30
2017-08-15T19:14:09.025Z,68.33
2017-08-15T19:16:38.182Z,69.21
2017-08-15T19:19:09.205Z,70.00
2017-08-15T19:21:37.332Z,69.14
2017-08-15T19:24:06.876Z,69.28
2017-08-15T19:26:35.736Z,68.92
2017-08-15T19:29:04.121Z,69.86
2017-08-15T19:31:33.497Z,70.07
2017-08-15T19:34:02.258Z,70.51
2017-08-15T19:36:30.509Z,69.89
2017-08-15T19:38:58.492Z,69.85
2017-08-15T19:41:26.387Z,69.26
2017-08-15T19:43:54.228Z,70.42
2017-08-15T19:46:22.028Z,70.32
2017-08-15T19:48:49.916Z,71.28
2017-08-15T19:51:17.693Z,71.49
2017-08-15T19:53:45.652Z,70.94
2017-08-15T19:56:13.567Z,71.45
2017-08-15T19:58:41.536Z,71.34
2017-08-15T20:01:09.413Z,71.87
2017-08-15T20:03:37.416Z,71.45
2017-08-15T20:06:05.278Z,71.32
2017-08-15T20:08:33.164Z,72.52
2017-08-15T20:11:01.137Z,73.38
2017-08-15T20:13:28.936Z,72.59
2017-08-15T20:15:56.712Z,71.97
2017-08-15T20:18:24.809Z,71.75
2017-08-15T20:20:52.628Z,72.41
2017-08-15T20:23:20.433Z,72.36
2017-08-15T20:25:48.354Z,72.47
2017-08-15T20:28:16.950Z,73.12
2017-08-15T20:30:44.860Z,74.05
2017-08-15T20:33:12.694Z,74.19
2017-08-15T20:35:40.565Z,74.28
2017-08-15T20:38:08.501Z,73.97
2017-08-15T20:40:36.484Z,74.08
2017-08-15T20:43:04.261Z,74.25
2017-08-15T20:45:32.100Z,75.10
2017-08-15T20:48:00.732Z,75.50
2017-08-15T20:50:29.397Z,74.69
2017-08-15T20:52:57.370Z,75.08
2017-08-15T20:55:25.783Z,74.40
2017-08-15T20:57:53.666Z,75.03
2017-08-15T21:00:21.449Z,75.74
2017-08-15T21:02:49.314Z,75.59
2017-08-15T21:05:17.183Z,75.32
2017-08-15T21:07:45.023Z,75.38
2017-08-15T21:10:12.752Z,75.30
2017-08-15T21:12:40.518Z,75.61
2017-08-15T21:15:09.249Z,75.91
2017-08-15T21:17:36.976Z,76.32
2017-08-15T21:20:04.738Z,75.83
2017-08-15T21:22:32.523Z,76.29
2017-08-15T21:25:00.307Z,76.30
2017-08-15T21:27:28.067Z,76.59
2017-08-15T21:29:55.939Z,77.10
2017-08-15T21:32:23.738Z,76.87
2017-08-15T21:34:51.639Z,77.23
2017-08-15T21:37:19.455Z,77.51
2017-08-15T21:39:47.456Z,76.03
2017-08-15T21:42:15.190Z,76.55
2017-08-15T21:44:43.031Z,77.27
2017-08-15T21:47:10.793Z,77.68
2017-08-15T21:49:38.609Z,77.25
2017-08-15T21:52:06.416Z,77.98
2017-08-15T21:54:34.311Z,77.59
2017-08-15T21:57:02.138Z,77.90
2017-08-15T21:59:29.932Z,77.54
2017-08-15T22:02:12.576Z,78.38
2017-08-15T22:04:40.316Z,78.19
2017-08-15T22:07:08.113Z,78.28
2017-08-15T22:09:35.980Z,78.01
2017-08-15T22:12:03.885Z,77.69
2017-08-15T22:14:31.833Z,77.97
2017-08-15T22:16:59.665Z,78.15
2017-08-15T22:19:27.510Z,77.87
2017-08-15T22:21:55.323Z,77.68
2017-08-15T22:24:23.252Z,79.05
2017-08-15T22:26:51.058Z,79.36
2017-08-15T22:29:18.786Z,79.00
2017-08-15T22:31:46.596Z,78.72
2017-08-15T22:34:14.373Z,78.80
2017-08-15T22:36:42.278Z,77.72
2017-08-15T22:39:10.125Z,78.82
2017-08-15T22:41:37.925Z,79.86
2017-08-15T22:44:05.828Z,79.32
2017-08-15T22:46:33.601Z,79.88
2017-08-15T22:49:01.460Z,79.48
2017-08-15T22:51:29.259Z,79.57
2017-08-15T22:53:57.146Z,78.65
2017-08-15T22:56:24.930Z,79.11
2017-08-15T22:58:52.712Z,79.18
2017-08-15T23:01:20.720Z,79.90
2017-08-15T23:03:48.667Z,79.67
2017-08-15T23:06:16.468Z,79.75
2017-08-15T23:08:44.326Z,80.02
2017-08-15T23:11:12.789Z,80.18
2017-08-15T23:13:40.594Z,79.72
2017-08-15T23:16:09.522Z,79.93
2017-08-15T23:18:37.388Z,80.08
2017-08-15T23:21:06.183Z,80.14
2017-08-15T23:23:34.041Z,80.03
2017-08-15T23:26:01.893Z,80.24
2017-08-15T23:28:29.719Z,80.06
2017-08-15T23:30:57.568Z,80.34
2017-08-15T23:33:25.491Z,80.01
2017-08-15T23:35:53.291Z,80.79
2017-08-15T23:38:21.228Z,80.50
2017-08-15T23:40:49.410Z,80.15
2017-08-15T23:43:17.234Z,80.31
2017-08-15T23:45:45.040Z,79.69
2017-08-15T23:48:12.817Z,80.85
2017-08-15T23:50:40.718Z,80.59
2017-08-15T23:53:08.569Z,80.64
2017-08-15T23:55:36.410Z,80.76
2017-08-15T23:58:04.214Z,81.19
